createdAt,value
2019-04-28T00:01:45.034Z,8.60
2019-04-28T00:04:13.769Z,8.60
2019-04-28T00:06:42.704Z,8.60
2019-04-28T00:09:12.823Z,8.60
2019-04-28T00:11:41.812Z,8.60
2019-04-28T00:14:11.958Z,8.60
2019-04-28T00:16:41.330Z,8.50
2019-04-28T00:19:11.027Z,8.60
2019-04-28T00:21:51.927Z,8.50
2019-04-28T00:24:55.095Z,8.50
2019-04-28T00:27:24.018Z,8.50
2019-04-28T00:29:52.853Z,8.40
2019-04-28T00:32:21.763Z,8.40
2019-04-28T00:34:51.146Z,8.40
2019-04-28T00:37:32.641Z,8.40
2019-04-28T00:40:01.625Z,8.40
2019-04-28T00:42:31.457Z,8.40
2019-04-28T00:45:01.699Z,8.40
2019-04-28T00:47:31.264Z,8.40
2019-04-28T00:50:02.114Z,8.50
2019-04-28T00:52:31.947Z,8.50
2019-04-28T00:55:01.369Z,8.50
2019-04-28T00:57:30.939Z,8.60
2019-04-28T01:00:02.101Z,8.60
2019-04-28T01:02:55.532Z,8.60
2019-04-28T01:05:24.827Z,8.60
2019-04-28T01:07:53.949Z,8.60
2019-04-28T01:10:24.096Z,8.60
2019-04-28T01:12:52.942Z,8.60
2019-04-28T01:15:30.443Z,8.60
2019-04-28T01:18:11.312Z,8.70
2019-04-28T01:20:40.181Z,8.70
2019-04-28T01:23:10.359Z,8.70
2019-04-28T01:25:40.133Z,8.70
2019-04-28T01:28:09.859Z,8.60
2019-04-28T01:30:56.598Z,8.60
2019-04-28T01:33:44.481Z,8.60
2019-04-28T01:36:13.246Z,8.60
2019-04-28T01:38:42.244Z,8.60
2019-04-28T01:41:11.130Z,8.60
2019-04-28T01:43:41.670Z,8.60
2019-04-28T01:46:10.577Z,8.60
2019-04-28T01:48:39.806Z,8.60
2019-04-28T01:51:09.537Z,8.60
2019-04-28T01:53:39.606Z,8.50
2019-04-28T01:56:10.485Z,8.50
2019-04-28T01:58:40.389Z,8.50
2019-04-28T02:01:10.611Z,8.50
2019-04-28T02:03:40.417Z,8.60
2019-04-28T02:06:10.068Z,8.60
2019-04-28T02:08:39.886Z,8.60
2019-04-28T02:11:10.075Z,8.60
2019-04-28T02:13:39.764Z,8.50
2019-04-28T02:16:09.717Z,8.50
2019-04-28T02:18:39.910Z,8.50
2019-04-28T02:21:19.605Z,8.50
2019-04-28T02:23:49.279Z,8.40
2019-04-28T02:26:19.562Z,8.40
2019-04-28T02:28:50.321Z,8.50
2019-04-28T02:31:24.136Z,8.50
2019-04-28T02:33:50.472Z,8.50
2019-04-28T02:36:20.682Z,8.50
2019-04-28T02:38:51.348Z,8.50
2019-04-28T02:41:20.852Z,8.50
2019-04-28T02:43:51.031Z,8.50
2019-04-28T02:46:20.766Z,8.40
2019-04-28T02:48:50.813Z,8.40
2019-04-28T02:51:40.852Z,8.40
2019-04-28T02:54:10.468Z,8.40
2019-04-28T02:56:43.422Z,8.30
2019-04-28T02:59:12.283Z,8.30
2019-04-28T03:01:42.347Z,8.40
2019-04-28T03:04:12.529Z,8.40
2019-04-28T03:06:41.495Z,8.40
2019-04-28T03:09:10.683Z,8.40
2019-04-28T03:11:41.091Z,8.40
2019-04-28T03:14:12.437Z,8.40
2019-04-28T03:16:42.930Z,8.40
2019-04-28T03:19:14.622Z,8.50
2019-04-28T03:21:43.624Z,8.50
2019-04-28T03:24:43.987Z,8.50
2019-04-28T03:27:31.909Z,8.50
2019-04-28T03:30:12.137Z,8.50
2019-04-28T03:32:52.845Z,8.50
2019-04-28T03:35:15.102Z,8.50
2019-04-28T03:37:44.035Z,8.50
2019-04-28T03:40:12.856Z,8.50
2019-04-28T03:42:42.737Z,8.50
2019-04-28T03:45:20.905Z,8.50
2019-04-28T03:47:50.918Z,8.50
2019-04-28T03:50:20.238Z,8.50
2019-04-28T03:52:51.143Z,8.50
2019-04-28T03:55:21.310Z,8.50
2019-04-28T03:57:51.081Z,8.50
2019-04-28T04:00:22.005Z,8.50
2019-04-28T04:02:51.890Z,8.50
2019-04-28T04:05:21.005Z,8.50
2019-04-28T04:07:50.693Z,8.50
2019-04-28T04:11:04.018Z,8.50
2019-04-28T04:13:41.579Z,8.50
2019-04-28T04:16:22.389Z,8.50
2019-04-28T04:18:54.567Z,8.50
2019-04-28T04:21:23.493Z,8.50
2019-04-28T04:23:54.496Z,8.50
2019-04-28T04:26:27.094Z,8.50
2019-04-28T04:28:56.036Z,8.50
2019-04-28T04:31:24.829Z,8.50
2019-04-28T04:33:53.657Z,8.40
2019-04-28T04:36:23.967Z,8.40
2019-04-28T04:38:55.131Z,8.40
2019-04-28T04:41:25.119Z,8.40
2019-04-28T04:44:04.059Z,8.40
2019-04-28T04:46:33.129Z,8.40
2019-04-28T04:49:01.939Z,8.50
2019-04-28T04:51:31.242Z,8.50
2019-04-28T04:54:01.016Z,8.60
2019-04-28T04:56:30.481Z,8.60
2019-04-28T04:59:02.171Z,8.60
2019-04-28T05:01:55.225Z,8.60
2019-04-28T05:04:31.283Z,8.60
2019-04-28T05:07:00.187Z,8.70
2019-04-28T05:09:29.564Z,8.70
2019-04-28T05:11:59.811Z,8.70
2019-04-28T05:14:29.906Z,8.70
2019-04-28T05:17:00.803Z,8.70
2019-04-28T05:19:30.013Z,8.80
2019-04-28T05:22:00.070Z,8.80
2019-04-28T05:25:06.544Z,8.80
2019-04-28T05:27:35.534Z,8.90
2019-04-28T05:30:05.526Z,8.80
2019-04-28T05:32:44.669Z,8.80
2019-04-28T05:35:05.918Z,8.80
2019-04-28T05:37:34.832Z,8.80
2019-04-28T05:40:03.961Z,8.80
2019-04-28T05:42:32.742Z,8.80
2019-04-28T05:45:01.561Z,8.90
2019-04-28T05:47:30.718Z,9.00
2019-04-28T05:50:16.908Z,9.10
2019-04-28T05:53:10.670Z,9.30
2019-04-28T05:55:56.134Z,9.50
2019-04-28T05:58:40.180Z,9.60
2019-04-28T06:01:37.227Z,9.50
2019-04-28T06:04:09.606Z,9.50
2019-04-28T06:06:41.299Z,9.40
2019-04-28T06:09:41.604Z,9.60
2019-04-28T06:12:12.414Z,9.60
2019-04-28T06:14:41.235Z,9.50
2019-04-28T06:17:11.083Z,9.60
2019-04-28T06:19:41.987Z,9.60
2019-04-28T06:22:18.043Z,9.50
2019-04-28T06:24:54.234Z,9.60
2019-04-28T06:27:24.567Z,9.70
2019-04-28T06:29:53.411Z,9.70
2019-04-28T06:32:23.478Z,9.70
2019-04-28T06:34:52.266Z,9.70
2019-04-28T06:37:21.255Z,9.80
2019-04-28T06:39:50.101Z,9.80
2019-04-28T06:42:19.974Z,9.80
2019-04-28T06:44:49.066Z,9.80
2019-04-28T06:47:18.541Z,9.90
2019-04-28T06:49:47.385Z,10.00
2019-04-28T06:52:16.239Z,10.00
2019-04-28T06:54:45.031Z,10.00
2019-04-28T06:57:14.037Z,10.10
2019-04-28T06:59:42.871Z,10.10
2019-04-28T07:02:11.633Z,10.10
2019-04-28T07:04:40.522Z,10.20
2019-04-28T07:07:09.419Z,10.30
2019-04-28T07:09:38.308Z,10.40
2019-04-28T07:12:07.143Z,10.40
2019-04-28T07:14:35.905Z,10.50
2019-04-28T07:17:04.993Z,10.50
2019-04-28T07:19:33.784Z,10.60
2019-04-28T07:22:10.921Z,10.60
2019-04-28T07:24:39.716Z,10.70
2019-04-28T07:27:09.922Z,10.80
2019-04-28T07:29:38.770Z,11.00
2019-04-28T07:32:07.691Z,11.00
2019-04-28T07:34:36.528Z,11.00
2019-04-28T07:37:05.636Z,11.00
2019-04-28T07:39:34.363Z,11.00
2019-04-28T07:42:03.144Z,10.90
2019-04-28T07:44:31.980Z,10.90
2019-04-28T07:47:00.813Z,10.80
2019-04-28T07:49:29.707Z,10.80
2019-04-28T07:52:08.923Z,10.80
2019-04-28T07:54:40.020Z,10.80
2019-04-28T07:57:08.261Z,10.80
2019-04-28T07:59:37.069Z,10.70
2019-04-28T08:02:06.047Z,10.70
2019-04-28T08:04:34.763Z,10.70
2019-04-28T08:07:03.693Z,10.70
2019-04-28T08:09:32.463Z,10.60
2019-04-28T08:12:01.247Z,10.60
2019-04-28T08:14:30.003Z,10.70
2019-04-28T08:16:58.967Z,10.60
2019-04-28T08:19:27.850Z,10.60
2019-04-28T08:21:56.650Z,10.60
2019-04-28T08:24:25.446Z,10.70
2019-04-28T08:26:54.526Z,10.90
2019-04-28T08:29:23.305Z,11.20
2019-04-28T08:32:01.700Z,11.30
2019-04-28T08:34:30.819Z,11.40
2019-04-28T08:36:59.741Z,11.50
2019-04-28T08:39:28.531Z,11.50
2019-04-28T08:41:57.308Z,11.40
2019-04-28T08:44:26.135Z,11.40
2019-04-28T08:46:55.061Z,11.30
2019-04-28T08:49:23.825Z,11.40
2019-04-28T08:51:52.591Z,11.40
2019-04-28T08:54:21.851Z,11.50
2019-04-28T08:56:50.835Z,11.50
2019-04-28T08:59:19.643Z,11.60
2019-04-28T09:01:48.507Z,11.70
2019-04-28T09:04:17.369Z,12.00
2019-04-28T09:06:46.425Z,12.10
2019-04-28T09:09:18.383Z,12.10
2019-04-28T09:11:47.314Z,12.10
2019-04-28T09:14:16.099Z,12.00
2019-04-28T09:16:45.171Z,11.70
2019-04-28T09:19:14.152Z,11.50
2019-04-28T09:21:43.048Z,11.30
2019-04-28T09:24:11.913Z,11.20
2019-04-28T09:26:40.789Z,11.20
2019-04-28T09:29:09.607Z,11.10
2019-04-28T09:31:38.389Z,11.10
2019-04-28T09:34:08.207Z,11.10
2019-04-28T09:36:37.299Z,11.20
2019-04-28T09:39:06.979Z,11.20
2019-04-28T09:41:38.550Z,11.30
2019-04-28T09:44:15.477Z,11.30
2019-04-28T09:46:48.979Z,11.40
2019-04-28T09:49:20.674Z,11.40
2019-04-28T09:52:02.160Z,11.50
2019-04-28T09:54:40.860Z,11.70
2019-04-28T09:57:09.853Z,11.80
2019-04-28T09:59:38.983Z,11.90
2019-04-28T10:02:10.632Z,11.90
2019-04-28T10:04:43.037Z,11.80
2019-04-28T10:07:12.010Z,11.80
2019-04-28T10:09:40.927Z,11.70
2019-04-28T10:12:09.717Z,11.70
2019-04-28T10:14:38.573Z,11.70
2019-04-28T10:17:07.532Z,11.70
2019-04-28T10:19:36.299Z,11.80
2019-04-28T10:22:05.243Z,12.00
2019-04-28T10:24:34.050Z,12.20
2019-04-28T10:27:02.930Z,12.40
2019-04-28T10:29:33.049Z,12.50
2019-04-28T10:32:02.227Z,12.60
2019-04-28T10:34:31.152Z,12.60
2019-04-28T10:37:00.222Z,12.70
2019-04-28T10:39:34.118Z,12.70
2019-04-28T10:42:03.043Z,12.80
2019-04-28T10:44:33.589Z,12.80
2019-04-28T10:47:02.664Z,12.80
2019-04-28T10:49:31.636Z,12.90
2019-04-28T10:52:00.532Z,12.90
2019-04-28T10:54:29.417Z,13.00
2019-04-28T10:56:58.331Z,13.10
2019-04-28T10:59:27.408Z,13.20
2019-04-28T11:01:56.335Z,13.20
2019-04-28T11:04:43.087Z,13.30
2019-04-28T11:07:12.589Z,13.20
2019-04-28T11:09:45.997Z,13.20
2019-04-28T11:12:21.906Z,13.10
2019-04-28T11:14:51.026Z,13.10
2019-04-28T11:17:21.485Z,13.10
2019-04-28T11:19:52.450Z,13.20
2019-04-28T11:22:21.816Z,13.20
2019-04-28T11:24:52.340Z,13.20
2019-04-28T11:27:21.519Z,13.10
2019-04-28T11:29:51.188Z,13.20
2019-04-28T11:32:20.163Z,13.20
2019-04-28T11:35:21.403Z,13.10
2019-04-28T11:37:44.665Z,13.10
2019-04-28T11:40:18.968Z,13.10
2019-04-28T11:42:47.734Z,13.30
2019-04-28T11:45:17.122Z,13.30
2019-04-28T11:47:46.154Z,13.40
2019-04-28T11:50:16.014Z,13.50
2019-04-28T11:52:44.929Z,13.50
2019-04-28T11:55:14.953Z,13.50
2019-04-28T11:57:47.217Z,13.50
2019-04-28T12:00:23.676Z,13.50
2019-04-28T12:02:52.595Z,13.50
2019-04-28T12:05:34.023Z,13.50
2019-04-28T12:07:53.873Z,13.50
2019-04-28T12:10:27.667Z,13.50
2019-04-28T12:13:09.766Z,13.50
2019-04-28T12:15:46.942Z,13.40
2019-04-28T12:18:35.915Z,13.50
2019-04-28T12:21:05.262Z,13.60
2019-04-28T12:23:34.092Z,13.50
2019-04-28T12:26:03.876Z,13.50
2019-04-28T12:28:32.687Z,13.50
2019-04-28T12:31:01.673Z,13.50
2019-04-28T12:33:30.572Z,13.60
2019-04-28T12:36:01.620Z,13.50
2019-04-28T12:38:30.627Z,13.50
2019-04-28T12:40:59.595Z,13.40
2019-04-28T12:43:28.454Z,13.40
2019-04-28T12:45:57.388Z,13.50
2019-04-28T12:48:26.429Z,13.40
2019-04-28T12:50:56.148Z,13.40
2019-04-28T12:53:26.538Z,13.40
2019-04-28T12:55:55.383Z,13.50
2019-04-28T12:58:24.476Z,13.50
2019-04-28T13:01:03.677Z,13.60
2019-04-28T13:03:52.685Z,13.60
2019-04-28T13:06:27.889Z,13.60
2019-04-28T13:08:57.492Z,13.60
2019-04-28T13:11:26.647Z,13.60
2019-04-28T13:13:55.496Z,13.60
2019-04-28T13:16:24.526Z,13.50
2019-04-28T13:18:53.368Z,13.50
2019-04-28T13:21:22.236Z,13.50
2019-04-28T13:23:51.107Z,13.50
2019-04-28T13:26:20.074Z,13.50
2019-04-28T13:28:48.910Z,13.40
2019-04-28T13:31:17.737Z,13.40
2019-04-28T13:33:55.887Z,13.40
2019-04-28T13:36:19.061Z,13.40
2019-04-28T13:38:47.979Z,13.40
2019-04-28T13:41:16.812Z,13.40
2019-04-28T13:43:45.838Z,13.50
2019-04-28T13:46:14.663Z,13.50
2019-04-28T13:48:43.887Z,13.40
2019-04-28T13:51:12.834Z,13.40
2019-04-28T13:53:41.635Z,13.30
2019-04-28T13:56:10.517Z,13.40
2019-04-28T13:58:48.533Z,13.50
2019-04-28T14:01:40.803Z,13.50
2019-04-28T14:04:34.745Z,13.60
2019-04-28T14:07:05.758Z,13.70
2019-04-28T14:09:34.611Z,13.70
2019-04-28T14:12:03.632Z,13.70
2019-04-28T14:14:32.462Z,13.70
2019-04-28T14:17:02.378Z,13.60
2019-04-28T14:19:32.545Z,13.60
2019-04-28T14:22:01.328Z,13.50
2019-04-28T14:24:33.283Z,13.50
2019-04-28T14:27:05.269Z,13.40
2019-04-28T14:29:34.154Z,13.50
2019-04-28T14:32:04.371Z,13.50
2019-04-28T14:34:33.207Z,13.50
2019-04-28T14:37:02.218Z,13.40
2019-04-28T14:39:33.021Z,13.40
2019-04-28T14:42:03.173Z,13.40
2019-04-28T14:44:35.453Z,13.30
2019-04-28T14:47:06.219Z,13.30
2019-04-28T14:49:35.045Z,13.30
2019-04-28T14:52:05.469Z,13.30
2019-04-28T14:54:34.383Z,13.40
2019-04-28T14:57:03.229Z,13.40
2019-04-28T14:59:32.031Z,13.40
2019-04-28T15:02:19.879Z,13.40
2019-04-28T15:05:12.106Z,13.40
2019-04-28T15:07:57.473Z,13.30
2019-04-28T15:10:36.927Z,13.40
2019-04-28T15:13:08.430Z,13.30
2019-04-28T15:15:44.015Z,13.30
2019-04-28T15:18:12.600Z,13.30
2019-04-28T15:20:41.407Z,13.20
2019-04-28T15:23:10.187Z,13.20
2019-04-28T15:25:41.736Z,13.20
2019-04-28T15:28:10.894Z,13.10
2019-04-28T15:30:40.237Z,13.10
2019-04-28T15:33:09.140Z,13.10
2019-04-28T15:35:38.412Z,13.20
2019-04-28T15:38:08.834Z,13.20
2019-04-28T15:40:38.736Z,13.10
2019-04-28T15:43:07.662Z,13.10
2019-04-28T15:45:37.350Z,13.00
2019-04-28T15:48:06.239Z,12.90
2019-04-28T15:50:35.150Z,12.70
2019-04-28T15:53:08.233Z,12.70
2019-04-28T15:56:02.266Z,12.70
2019-04-28T15:58:36.393Z,12.60
2019-04-28T16:01:10.060Z,12.60
2019-04-28T16:03:39.619Z,12.60
2019-04-28T16:06:18.228Z,12.60
2019-04-28T16:08:48.396Z,12.50
2019-04-28T16:11:22.532Z,12.50
2019-04-28T16:13:52.487Z,12.50
2019-04-28T16:16:23.072Z,12.40
2019-04-28T16:18:55.967Z,12.40
2019-04-28T16:21:26.970Z,12.30
2019-04-28T16:23:56.033Z,12.30
2019-04-28T16:26:45.099Z,12.30
2019-04-28T16:29:17.874Z,12.30
2019-04-28T16:31:48.490Z,12.30
2019-04-28T16:34:31.819Z,12.40
2019-04-28T16:37:03.247Z,12.30
2019-04-28T16:39:44.740Z,12.40
2019-04-28T16:42:49.231Z,12.40
2019-04-28T16:45:27.004Z,12.40
2019-04-28T16:47:56.085Z,12.40
2019-04-28T16:50:28.005Z,12.40
2019-04-28T16:52:56.775Z,12.30
2019-04-28T16:55:33.796Z,12.30
2019-04-28T16:58:28.821Z,12.20
2019-04-28T17:01:25.379Z,12.20
2019-04-28T17:03:54.250Z,12.20
2019-04-28T17:06:24.492Z,12.20
2019-04-28T17:08:53.933Z,12.20
2019-04-28T17:11:23.148Z,12.10
2019-04-28T17:13:55.175Z,12.10
2019-04-28T17:16:51.246Z,12.10
2019-04-28T17:19:34.000Z,12.10
2019-04-28T17:22:08.343Z,12.00
2019-04-28T17:24:37.210Z,12.00
2019-04-28T17:27:49.022Z,12.00
2019-04-28T17:30:21.616Z,12.00
2019-04-28T17:32:51.429Z,12.00
2019-04-28T17:35:22.134Z,12.10
2019-04-28T17:38:06.069Z,12.00
2019-04-28T17:40:27.225Z,12.00
2019-04-28T17:42:56.070Z,12.00
2019-04-28T17:45:26.509Z,11.90
2019-04-28T17:47:57.698Z,11.90
2019-04-28T17:50:31.779Z,11.90
2019-04-28T17:53:02.171Z,11.80
2019-04-28T17:55:35.294Z,11.70
2019-04-28T17:58:04.366Z,11.70
2019-04-28T18:00:45.186Z,11.60
2019-04-28T18:03:51.055Z,11.70
2019-04-28T18:06:22.262Z,11.60
2019-04-28T18:08:54.098Z,11.60
2019-04-28T18:11:24.029Z,11.60
2019-04-28T18:14:04.213Z,11.50
2019-04-28T18:16:52.888Z,11.50
2019-04-28T18:19:27.200Z,11.50
2019-04-28T18:21:57.943Z,11.50
2019-04-28T18:24:28.434Z,11.40
2019-04-28T18:26:57.278Z,11.40
2019-04-28T18:29:29.750Z,11.40
2019-04-28T18:32:18.056Z,11.30
2019-04-28T18:34:57.304Z,11.20
2019-04-28T18:37:46.107Z,11.20
2019-04-28T18:40:45.786Z,11.20
2019-04-28T18:43:26.913Z,11.20
2019-04-28T18:46:00.624Z,11.20
2019-04-28T18:51:25.500Z,11.00
2019-04-28T18:53:54.458Z,10.90
2019-04-28T18:56:30.288Z,10.90
2019-04-28T18:59:24.435Z,10.90
2019-04-28T19:02:36.658Z,10.80
2019-04-28T19:05:28.667Z,10.70
2019-04-28T19:08:23.785Z,10.70
2019-04-28T19:14:50.434Z,10.60
2019-04-28T19:20:31.348Z,10.60
2019-04-28T19:23:00.266Z,10.50
2019-04-28T19:25:29.456Z,10.50
2019-04-28T19:27:58.443Z,10.40
2019-04-28T19:30:29.431Z,10.40
2019-04-28T19:33:01.222Z,10.40
2019-04-28T19:35:33.328Z,10.30
2019-04-28T19:38:02.712Z,10.40
2019-04-28T19:40:31.552Z,10.40
2019-04-28T19:43:00.357Z,10.30
2019-04-28T19:45:39.711Z,10.20
2019-04-28T19:48:09.092Z,10.10
2019-04-28T19:50:39.649Z,10.10
2019-04-28T19:53:15.232Z,10.10
2019-04-28T19:56:06.317Z,10.10
2019-04-28T19:58:43.553Z,10.00
2019-04-28T20:01:16.930Z,10.00
2019-04-28T20:03:45.744Z,10.00
2019-04-28T20:06:27.811Z,10.10
2019-04-28T20:08:57.134Z,10.00
2019-04-28T20:11:25.915Z,10.00
2019-04-28T20:13:54.710Z,10.00
2019-04-28T20:16:23.477Z,10.00
2019-04-28T20:18:53.564Z,9.90
2019-04-28T20:21:26.390Z,9.90
2019-04-28T20:23:56.170Z,9.80
2019-04-28T20:26:24.975Z,9.80
2019-04-28T20:28:54.117Z,9.80
2019-04-28T20:31:22.885Z,9.80
2019-04-28T20:33:54.861Z,9.80
2019-04-28T20:36:32.864Z,9.70
2019-04-28T20:39:07.144Z,9.60
2019-04-28T20:41:37.541Z,9.50
2019-04-28T20:44:06.819Z,9.40
2019-04-28T20:46:35.659Z,9.40
2019-04-28T20:49:08.114Z,9.40
2019-04-28T20:51:38.750Z,9.40
2019-04-28T20:54:07.525Z,9.40
2019-04-28T20:56:36.547Z,9.30
2019-04-28T20:59:09.267Z,9.30
2019-04-28T21:01:39.544Z,9.20
2019-04-28T21:04:11.481Z,9.20
2019-04-28T21:06:40.473Z,9.30
2019-04-28T21:09:09.847Z,9.20
2019-04-28T21:11:39.479Z,9.10
2019-04-28T21:14:08.476Z,8.90
2019-04-28T21:16:37.838Z,8.90
2019-04-28T21:19:08.008Z,9.00
2019-04-28T21:21:37.137Z,9.00
2019-04-28T21:24:05.949Z,9.00
2019-04-28T21:26:34.916Z,8.90
2019-04-28T21:29:07.004Z,8.90
2019-04-28T21:31:36.829Z,8.80
2019-04-28T21:34:06.064Z,8.90
2019-04-28T21:36:35.428Z,8.90
2019-04-28T21:39:08.904Z,8.80
2019-04-28T21:41:37.690Z,8.80
2019-04-28T21:44:17.204Z,8.70
2019-04-28T21:46:51.005Z,8.70
2019-04-28T21:49:28.046Z,8.70
2019-04-28T21:51:56.849Z,8.60
2019-04-28T21:54:25.738Z,8.60
2019-04-28T21:56:54.719Z,8.70
2019-04-28T21:59:23.467Z,8.70
2019-04-28T22:01:52.321Z,8.80
2019-04-28T22:04:21.106Z,8.80
2019-04-28T22:06:50.109Z,8.80
2019-04-28T22:09:19.186Z,8.70
2019-04-28T22:11:47.963Z,8.60
2019-04-28T22:14:16.778Z,8.60
2019-04-28T22:16:45.683Z,8.60
2019-04-28T22:19:14.432Z,8.70
2019-04-28T22:21:43.224Z,8.70
2019-04-28T22:24:32.808Z,8.60
2019-04-28T22:27:01.711Z,8.60
2019-04-28T22:29:30.835Z,8.60
2019-04-28T22:31:59.604Z,8.60
2019-04-28T22:34:28.498Z,8.60
2019-04-28T22:36:57.456Z,8.60
2019-04-28T22:39:26.247Z,8.60
2019-04-28T22:41:55.030Z,8.60
2019-04-28T22:44:23.820Z,8.70
2019-04-28T22:46:52.794Z,8.70
2019-04-28T22:49:21.549Z,8.70
2019-04-28T22:51:50.331Z,8.70
2019-04-28T22:54:34.753Z,8.70
2019-04-28T22:57:26.141Z,8.70
2019-04-28T22:59:55.196Z,8.60
2019-04-28T23:02:24.359Z,8.60
2019-04-28T23:04:59.429Z,8.60
2019-04-28T23:07:28.479Z,8.60
2019-04-28T23:09:57.343Z,8.50
2019-04-28T23:12:26.049Z,8.40
2019-04-28T23:14:54.844Z,8.30
2019-04-28T23:17:23.847Z,8.30
2019-04-28T23:19:52.720Z,8.30
2019-04-28T23:22:52.492Z,8.20
2019-04-28T23:25:21.534Z,8.20
2019-04-28T23:27:50.409Z,8.20
2019-04-28T23:30:36.928Z,8.20
2019-04-28T23:33:05.726Z,8.20
2019-04-28T23:35:34.605Z,8.10
2019-04-28T23:38:03.657Z,8.10
2019-04-28T23:40:32.483Z,8.10
2019-04-28T23:43:05.696Z,8.10
2019-04-28T23:45:34.723Z,8.10
2019-04-28T23:48:03.765Z,8.10
2019-04-28T23:50:39.671Z,8.10
2019-04-28T23:53:11.926Z,8.10
2019-04-28T23:55:40.681Z,8.10
2019-04-28T23:58:09.756Z,8.10
